createdAt,value
2022-11-01T00:02:48.720Z,8.01
2022-11-01T00:07:53.218Z,7.94
2022-11-01T00:12:55.034Z,7.90
2022-11-01T00:17:56.876Z,7.84
2022-11-01T00:22:58.833Z,7.88
2022-11-01T00:28:01.031Z,7.92
2022-11-01T00:33:04.327Z,7.91
2022-11-01T00:38:06.392Z,7.90
2022-11-01T00:43:08.572Z,7.91
2022-11-01T00:48:10.676Z,7.92
2022-11-01T00:53:12.883Z,7.93
2022-11-01T00:58:14.699Z,7.97
2022-11-01T01:03:16.493Z,8.02
2022-11-01T01:08:18.500Z,8.08
2022-11-01T01:13:20.922Z,8.16
2022-11-01T01:18:22.700Z,8.25
2022-11-01T01:23:24.537Z,8.35
2022-11-01T01:28:26.383Z,8.45
2022-11-01T01:33:28.147Z,8.54
2022-11-01T01:38:30.447Z,8.64
2022-11-01T01:43:43.789Z,8.75
2022-11-01T01:48:49.659Z,8.87
2022-11-01T01:53:55.335Z,8.96
2022-11-01T01:59:01.611Z,9.04
2022-11-01T02:04:06.453Z,9.13
2022-11-01T02:09:09.929Z,9.21
2022-11-01T02:14:11.797Z,9.25
2022-11-01T02:19:25.781Z,9.30
2022-11-01T02:24:57.033Z,9.31
2022-11-01T02:30:20.414Z,9.34
2022-11-01T02:35:24.909Z,9.37
2022-11-01T02:40:48.324Z,9.38
2022-11-01T02:45:51.254Z,9.35
2022-11-01T02:50:57.185Z,9.28
2022-11-01T02:55:59.042Z,9.16
2022-11-01T03:01:00.864Z,9.04
2022-11-01T03:06:06.186Z,8.95
2022-11-01T03:11:36.317Z,8.87
2022-11-01T03:16:41.179Z,8.78
2022-11-01T03:22:06.043Z,8.71
2022-11-01T03:27:16.241Z,8.65
2022-11-01T03:32:19.627Z,8.58
2022-11-01T03:37:22.857Z,8.51
2022-11-01T03:42:25.391Z,8.45
2022-11-01T03:47:27.712Z,8.37
2022-11-01T03:52:29.504Z,8.31
2022-11-01T03:57:31.292Z,8.30
2022-11-01T04:02:33.081Z,8.36
2022-11-01T04:07:34.888Z,8.48
2022-11-01T04:12:37.022Z,8.58
2022-11-01T04:17:57.649Z,8.67
2022-11-01T04:23:05.222Z,8.76
2022-11-01T04:28:07.281Z,8.85
2022-11-01T04:33:09.527Z,8.93
2022-11-01T04:38:12.785Z,9.00
2022-11-01T04:43:14.581Z,9.08
2022-11-01T04:48:17.061Z,9.14
2022-11-01T04:53:19.047Z,9.19
2022-11-01T04:58:20.937Z,9.23
2022-11-01T05:03:22.750Z,9.27
2022-11-01T05:08:24.554Z,9.28
2022-11-01T05:13:26.370Z,9.30
2022-11-01T05:18:29.513Z,9.33
2022-11-01T05:23:31.379Z,9.35
2022-11-01T05:28:33.246Z,9.35
2022-11-01T05:33:34.996Z,9.37
2022-11-01T05:38:36.781Z,9.39
2022-11-01T05:43:38.508Z,9.39
2022-11-01T05:48:41.919Z,9.40
2022-11-01T05:53:43.739Z,9.43
2022-11-01T05:58:47.750Z,9.47
2022-11-01T06:03:50.660Z,9.51
2022-11-01T06:08:52.490Z,9.58
2022-11-01T06:13:55.716Z,9.65
2022-11-01T06:18:57.491Z,9.72
2022-11-01T06:23:59.242Z,9.80
2022-11-01T06:29:02.286Z,9.87
2022-11-01T06:34:04.046Z,9.93
2022-11-01T06:39:05.808Z,10.00
2022-11-01T06:44:08.165Z,10.07
2022-11-01T06:49:12.381Z,10.16
2022-11-01T06:54:16.601Z,10.25
2022-11-01T06:59:18.424Z,10.36
2022-11-01T07:04:21.324Z,10.51
2022-11-01T07:09:23.245Z,10.64
2022-11-01T07:14:25.025Z,10.73
2022-11-01T07:19:26.872Z,10.80
2022-11-01T07:24:28.625Z,10.86
2022-11-01T07:29:30.399Z,10.92
2022-11-01T07:34:32.226Z,11.06
2022-11-01T07:39:34.029Z,11.29
2022-11-01T07:44:35.835Z,11.45
2022-11-01T07:49:37.594Z,11.56
2022-11-01T07:54:39.484Z,11.60
2022-11-01T07:59:41.250Z,11.68
2022-11-01T08:04:43.051Z,11.69
2022-11-01T08:09:44.901Z,11.69
2022-11-01T08:14:46.703Z,11.67
2022-11-01T08:19:51.216Z,11.74
2022-11-01T08:24:53.062Z,11.77
2022-11-01T08:29:54.904Z,11.76
2022-11-01T08:34:56.742Z,11.81
2022-11-01T08:39:58.502Z,11.87
2022-11-01T08:45:00.308Z,11.93
2022-11-01T08:50:03.275Z,12.00
2022-11-01T08:55:08.698Z,11.98
2022-11-01T09:00:12.591Z,11.99
2022-11-01T09:05:14.469Z,11.98
2022-11-01T09:10:17.153Z,12.03
2022-11-01T09:15:19.057Z,12.14
2022-11-01T09:20:20.893Z,12.31
2022-11-01T09:25:22.885Z,12.46
2022-11-01T09:30:26.106Z,12.49
2022-11-01T09:35:27.902Z,12.45
2022-11-01T09:40:37.662Z,12.44
2022-11-01T09:45:39.454Z,12.52
2022-11-01T09:50:43.927Z,12.65
2022-11-01T09:56:30.492Z,12.74
2022-11-01T10:01:41.228Z,12.79
2022-11-01T10:06:49.354Z,12.85
2022-11-01T10:12:01.201Z,12.94
2022-11-01T10:17:13.633Z,13.00
2022-11-01T10:22:27.624Z,13.06
2022-11-01T10:27:41.926Z,13.07
2022-11-01T10:33:20.762Z,13.04
2022-11-01T10:44:05.367Z,12.99
2022-11-01T10:49:18.028Z,13.03
2022-11-01T10:54:26.111Z,13.15
2022-11-01T10:59:42.328Z,13.13
2022-11-01T11:04:44.513Z,13.21
2022-11-01T11:09:50.262Z,13.29
2022-11-01T11:15:00.023Z,13.38
2022-11-01T11:20:06.141Z,13.45
2022-11-01T11:25:17.657Z,13.53
2022-11-01T11:30:32.716Z,13.54
2022-11-01T11:35:37.286Z,13.50
2022-11-01T11:40:39.113Z,13.53
2022-11-01T11:45:40.979Z,13.57
2022-11-01T11:50:43.602Z,13.69
2022-11-01T11:55:48.468Z,13.72
2022-11-01T12:00:54.050Z,13.66
2022-11-01T12:06:08.708Z,13.62
2022-11-01T12:11:11.589Z,13.57
2022-11-01T12:16:14.389Z,13.54
2022-11-01T12:21:19.790Z,13.54
2022-11-01T12:26:24.288Z,13.51
2022-11-01T12:31:31.215Z,13.50
2022-11-01T12:36:51.209Z,13.50
2022-11-01T12:41:59.582Z,13.57
2022-11-01T12:47:06.660Z,13.70
2022-11-01T12:52:52.104Z,13.83
2022-11-01T12:57:55.160Z,13.91
2022-11-01T13:03:11.455Z,13.95
2022-11-01T13:08:23.365Z,13.99
2022-11-01T13:13:31.404Z,14.07
2022-11-01T13:18:58.682Z,14.07
2022-11-01T13:24:13.432Z,13.98
2022-11-01T13:29:23.293Z,13.90
2022-11-01T13:34:37.596Z,13.85
2022-11-01T13:40:21.006Z,13.77
2022-11-01T13:45:47.510Z,13.67
2022-11-01T13:51:09.769Z,13.57
2022-11-01T13:56:22.765Z,13.45
2022-11-01T14:01:35.560Z,13.24
2022-11-01T14:06:41.951Z,13.05
2022-11-01T14:11:50.944Z,12.87
2022-11-01T14:16:52.779Z,12.68
2022-11-01T14:21:54.654Z,12.55
2022-11-01T14:26:56.863Z,12.43
2022-11-01T14:31:59.488Z,12.30
2022-11-01T14:37:11.780Z,12.20
2022-11-01T14:42:23.029Z,12.08
2022-11-01T14:47:33.245Z,11.95
2022-11-01T14:52:43.562Z,11.85
2022-11-01T14:57:46.129Z,11.75
2022-11-01T15:02:47.996Z,11.65
2022-11-01T15:07:53.703Z,11.55
2022-11-01T15:13:02.418Z,11.42
2022-11-01T15:18:16.943Z,11.29
2022-11-01T15:23:22.414Z,11.15
2022-11-01T15:28:32.592Z,11.04
2022-11-01T15:33:35.013Z,10.92
2022-11-01T15:38:53.082Z,10.81
2022-11-01T15:43:57.352Z,10.73
2022-11-01T15:49:05.607Z,10.65
2022-11-01T15:54:26.784Z,10.55
2022-11-01T15:59:59.485Z,10.46
2022-11-01T16:05:01.446Z,10.38
2022-11-01T16:10:05.641Z,10.30
2022-11-01T16:15:32.053Z,10.23
2022-11-01T16:20:36.861Z,10.15
2022-11-01T16:25:39.462Z,10.07
2022-11-01T16:30:49.875Z,10.02
2022-11-01T16:35:59.210Z,9.97
2022-11-01T16:41:04.550Z,9.92
2022-11-01T16:46:06.377Z,9.88
2022-11-01T16:51:09.310Z,9.83
2022-11-01T16:56:35.701Z,9.78
2022-11-01T17:01:39.180Z,9.76
2022-11-01T17:06:41.099Z,9.74
2022-11-01T17:11:50.485Z,9.72
2022-11-01T17:16:53.281Z,9.72
2022-11-01T17:21:55.416Z,9.68
2022-11-01T17:27:00.778Z,9.65
2022-11-01T17:32:04.219Z,9.67
2022-11-01T17:37:06.524Z,9.68
2022-11-01T17:42:09.857Z,9.70
2022-11-01T17:47:15.040Z,9.71
2022-11-01T17:52:17.802Z,9.71
2022-11-01T17:57:19.731Z,9.71
2022-11-01T18:02:22.086Z,9.71
2022-11-01T18:07:24.592Z,9.68
2022-11-01T18:12:36.750Z,9.66
2022-11-01T18:17:48.432Z,9.64
2022-11-01T18:22:57.945Z,9.61
2022-11-01T18:28:02.273Z,9.59
2022-11-01T18:33:31.772Z,9.59
2022-11-01T18:38:46.453Z,9.57
2022-11-01T18:43:52.026Z,9.54
2022-11-01T18:49:02.024Z,9.54
2022-11-01T18:54:10.012Z,9.54
2022-11-01T18:59:15.138Z,9.55
2022-11-01T19:04:24.471Z,9.57
2022-11-01T19:09:29.814Z,9.58
2022-11-01T19:14:32.872Z,9.59
2022-11-01T19:19:37.687Z,9.61
2022-11-01T19:24:40.165Z,9.62
2022-11-01T19:29:42.059Z,9.65
2022-11-01T19:34:43.994Z,9.68
2022-11-01T19:39:47.243Z,9.71
2022-11-01T19:44:49.131Z,9.74
2022-11-01T19:49:51.052Z,9.83
2022-11-01T19:54:53.444Z,9.89
2022-11-01T20:00:04.031Z,9.86
2022-11-01T20:05:25.832Z,9.82
2022-11-01T20:10:27.853Z,9.81
2022-11-01T20:15:29.914Z,9.79
2022-11-01T20:20:32.640Z,9.79
2022-11-01T20:25:35.090Z,9.78
2022-11-01T20:30:37.031Z,9.79
2022-11-01T20:35:38.908Z,9.81
2022-11-01T20:40:40.794Z,9.81
2022-11-01T20:45:42.679Z,9.84
2022-11-01T20:50:45.401Z,9.88
2022-11-01T20:55:47.612Z,9.93
2022-11-01T21:00:51.643Z,9.98
2022-11-01T21:05:53.606Z,10.04
2022-11-01T21:10:57.626Z,10.08
2022-11-01T21:16:01.835Z,10.12
2022-11-01T21:21:45.303Z,10.15
2022-11-01T21:26:50.904Z,10.15
2022-11-01T21:31:57.141Z,10.17
2022-11-01T21:36:59.484Z,10.18
2022-11-01T21:42:22.653Z,10.19
2022-11-01T21:47:27.070Z,10.21
2022-11-01T21:52:28.848Z,10.22
2022-11-01T21:57:30.622Z,10.22
2022-11-01T22:02:32.464Z,10.23
2022-11-01T22:07:34.345Z,10.21
2022-11-01T22:12:41.149Z,10.21
2022-11-01T22:17:42.939Z,10.20
2022-11-01T22:22:44.727Z,10.20
2022-11-01T22:27:46.634Z,10.18
2022-11-01T22:32:49.743Z,10.14
2022-11-01T22:37:51.516Z,10.08
2022-11-01T22:42:58.272Z,10.06
2022-11-01T22:48:00.366Z,10.04
2022-11-01T22:53:02.523Z,10.02
2022-11-01T22:58:18.811Z,10.01
2022-11-01T23:03:28.520Z,9.98
2022-11-01T23:08:33.278Z,9.93
2022-11-01T23:13:56.472Z,9.88
2022-11-01T23:19:01.384Z,9.83
2022-11-01T23:24:03.471Z,9.82
2022-11-01T23:29:05.424Z,9.82
2022-11-01T23:34:10.124Z,9.86
2022-11-01T23:39:13.343Z,9.87
2022-11-01T23:44:37.335Z,9.86
2022-11-01T23:49:39.153Z,9.83
2022-11-01T23:54:43.163Z,9.80
2022-11-01T23:59:45.604Z,9.76
